createdAt,value
2019-02-16T20:51:51.121Z,7.84
2019-02-16T20:54:21.364Z,7.66
2019-02-16T20:56:51.377Z,7.63
2019-02-16T20:59:27.358Z,7.60
2019-02-16T21:01:57.323Z,7.61
2019-02-16T21:04:39.387Z,7.58
2019-02-16T21:07:15.195Z,7.68
2019-02-16T21:09:45.214Z,7.68
2019-02-16T21:12:21.390Z,7.54
2019-02-16T21:14:51.471Z,7.23
2019-02-16T21:17:21.912Z,6.75
2019-02-16T21:20:04.220Z,6.80
2019-02-16T21:22:37.110Z,6.54
2019-02-16T21:25:10.887Z,6.18
2019-02-16T21:27:57.729Z,6.39
2019-02-16T21:30:24.370Z,6.32
2019-02-16T21:33:00.318Z,6.50
2019-02-16T21:35:42.154Z,6.50
2019-02-16T21:38:14.987Z,6.66
2019-02-16T21:40:45.217Z,6.57
2019-02-16T21:43:21.206Z,6.58
2019-02-16T21:46:20.987Z,6.32
2019-02-16T21:48:52.168Z,6.10
2019-02-16T21:51:23.240Z,5.89
2019-02-16T21:54:10.434Z,5.96
2019-02-16T21:56:53.849Z,5.87
2019-02-16T21:59:33.943Z,5.81
2019-02-16T22:02:16.905Z,5.51
2019-02-16T22:04:48.024Z,5.95
2019-02-16T22:07:19.231Z,6.10
2019-02-16T22:09:56.269Z,5.95
2019-02-16T22:12:30.605Z,5.69
2019-02-16T22:15:02.333Z,5.90
2019-02-16T22:17:31.604Z,5.90
2019-02-16T22:20:01.097Z,5.91
2019-02-16T22:22:30.599Z,6.03
2019-02-16T22:25:00.183Z,5.93
2019-02-16T22:27:29.806Z,5.95
2019-02-16T22:29:59.367Z,6.07
2019-02-16T22:32:28.999Z,5.97
2019-02-16T22:34:58.667Z,5.89
2019-02-16T22:37:28.255Z,5.75
2019-02-16T22:39:57.757Z,5.50
2019-02-16T22:42:27.358Z,5.60
2019-02-16T22:44:57.120Z,5.48
2019-02-16T22:47:26.822Z,5.53
2019-02-16T22:49:56.419Z,5.33
2019-02-16T22:52:25.858Z,5.25
2019-02-16T22:54:55.568Z,5.30
2019-02-16T22:57:25.138Z,5.20
2019-02-16T22:59:54.889Z,5.10
2019-02-16T23:02:24.391Z,5.10
2019-02-16T23:04:53.904Z,5.12
2019-02-16T23:07:23.497Z,5.08
2019-02-16T23:09:53.204Z,5.04
2019-02-16T23:12:22.624Z,4.99
2019-02-16T23:14:52.285Z,4.98
2019-02-16T23:17:21.940Z,5.17
2019-02-16T23:19:51.652Z,5.12
2019-02-16T23:22:21.165Z,5.04
2019-02-16T23:24:50.764Z,5.12
2019-02-16T23:27:20.361Z,5.28
2019-02-16T23:29:49.842Z,5.34
2019-02-16T23:32:19.259Z,5.41
2019-02-16T23:34:48.671Z,5.03
2019-02-16T23:37:18.438Z,5.04
2019-02-16T23:39:47.870Z,5.12
2019-02-16T23:42:17.494Z,5.16
2019-02-16T23:44:47.104Z,5.34
2019-02-16T23:47:16.744Z,5.30
2019-02-16T23:49:46.214Z,5.02
2019-02-16T23:52:15.859Z,5.10
2019-02-16T23:54:45.446Z,5.03
2019-02-16T23:57:15.057Z,5.02
2019-02-16T23:59:44.493Z,4.88
